createdAt,value
2018-12-27T00:02:11.074Z,97.17
2018-12-27T00:04:59.150Z,94.80
2018-12-27T00:07:47.247Z,104.83
2018-12-27T00:10:35.355Z,131.73
2018-12-27T00:13:23.652Z,108.30
2018-12-27T00:16:11.618Z,146.30
2018-12-27T00:22:06.803Z,155.00
2018-12-27T00:24:54.763Z,144.53
2018-12-27T00:30:30.895Z,129.67
2018-12-27T00:33:03.201Z,128.30
2018-12-27T00:35:30.981Z,163.10
2018-12-27T00:38:00.091Z,166.93
2018-12-27T00:40:29.493Z,153.83
2018-12-27T00:42:59.990Z,133.20
2018-12-27T00:45:29.229Z,134.77
2018-12-27T00:47:58.296Z,165.70
2018-12-27T00:50:27.290Z,137.57
2018-12-27T00:52:56.338Z,162.63
2018-12-27T00:55:25.335Z,197.37
2018-12-27T00:57:54.387Z,155.27
2018-12-27T01:00:23.438Z,190.60
2018-12-27T01:02:52.442Z,199.27
2018-12-27T01:05:21.555Z,184.57
2018-12-27T01:07:50.952Z,168.63
2018-12-27T01:10:19.989Z,148.13
2018-12-27T01:12:49.018Z,187.17
2018-12-27T01:15:18.068Z,227.97
2018-12-27T01:18:06.103Z,206.97
2018-12-27T01:20:35.502Z,207.37
2018-12-27T01:23:04.890Z,219.93
2018-12-27T01:25:33.883Z,191.80
2018-12-27T01:28:02.955Z,202.37
2018-12-27T01:30:32.276Z,181.47
2018-12-27T01:33:01.376Z,179.53
2018-12-27T01:35:30.378Z,201.97
2018-12-27T01:37:59.375Z,204.43
2018-12-27T01:40:28.411Z,161.83
2018-12-27T01:42:57.457Z,167.43
2018-12-27T01:45:26.464Z,200.00
2018-12-27T01:47:55.854Z,222.20
2018-12-27T01:50:24.909Z,157.17
2018-12-27T01:52:53.922Z,168.13
2018-12-27T01:55:22.940Z,161.47
2018-12-27T01:57:52.245Z,158.03
2018-12-27T02:00:21.245Z,178.90
2018-12-27T02:03:09.397Z,160.43
2018-12-27T02:05:38.409Z,170.17
2018-12-27T02:08:07.772Z,159.30
2018-12-27T02:10:36.817Z,146.00
2018-12-27T02:13:05.830Z,168.90
2018-12-27T02:15:34.867Z,157.27
2018-12-27T02:18:03.916Z,137.17
2018-12-27T02:20:32.915Z,142.03
2018-12-27T02:23:01.907Z,174.60
2018-12-27T02:25:50.019Z,149.80
2018-12-27T02:28:19.007Z,145.03
2018-12-27T02:30:48.063Z,138.27
2018-12-27T02:33:17.149Z,142.50
2018-12-27T02:35:46.178Z,151.27
2018-12-27T02:38:15.177Z,126.43
2018-12-27T02:40:44.225Z,116.17
2018-12-27T02:43:13.266Z,102.90
2018-12-27T02:45:42.293Z,112.20
2018-12-27T02:48:11.348Z,122.10
2018-12-27T02:50:40.344Z,95.40
2018-12-27T02:53:28.426Z,98.90
2018-12-27T02:55:57.782Z,92.67
2018-12-27T02:58:27.182Z,73.40
2018-12-27T03:00:56.206Z,79.80
2018-12-27T03:03:25.233Z,76.80
2018-12-27T03:05:54.242Z,63.40
2018-12-27T03:08:23.287Z,65.00
2018-12-27T03:11:11.450Z,71.00
2018-12-27T03:13:40.452Z,63.63
2018-12-27T03:16:09.534Z,47.60
2018-12-27T03:18:38.536Z,60.77
2018-12-27T03:21:07.575Z,51.47
2018-12-27T03:23:36.620Z,55.43
2018-12-27T03:26:05.667Z,48.30
2018-12-27T03:28:34.652Z,50.70
2018-12-27T03:31:03.681Z,47.67
2018-12-27T03:33:52.738Z,45.00
2018-12-27T03:36:22.498Z,46.87
2018-12-27T03:38:51.490Z,40.97
2018-12-27T03:41:20.822Z,47.70
2018-12-27T03:43:50.173Z,43.50
2018-12-27T03:46:19.505Z,39.80
2018-12-27T03:48:48.560Z,36.67
2018-12-27T03:51:17.545Z,41.17
2018-12-27T03:53:46.554Z,36.47
2018-12-27T03:56:15.917Z,37.30
2018-12-27T03:58:44.960Z,36.90
2018-12-27T04:01:13.955Z,36.87
2018-12-27T04:03:43.031Z,37.10
2018-12-27T04:06:12.026Z,38.37
2018-12-27T04:09:00.201Z,34.70
2018-12-27T04:11:29.199Z,36.03
2018-12-27T04:13:58.206Z,34.90
2018-12-27T04:16:46.275Z,33.97
2018-12-27T04:19:34.309Z,34.00
2018-12-27T04:22:22.388Z,34.80
2018-12-27T04:24:51.457Z,33.07
2018-12-27T04:27:39.493Z,32.13
2018-12-27T04:30:27.530Z,31.70
2018-12-27T04:33:36.033Z,31.00
2018-12-27T04:36:44.561Z,33.53
2018-12-27T04:39:32.646Z,31.60
2018-12-27T04:45:34.578Z,31.73
2018-12-27T04:48:22.476Z,29.30
2018-12-27T04:51:10.543Z,30.10
2018-12-27T04:53:58.777Z,30.73
2018-12-27T04:56:46.928Z,36.83
2018-12-27T04:59:34.825Z,41.30
2018-12-27T05:02:22.915Z,34.63
2018-12-27T05:05:10.979Z,30.07
2018-12-27T05:08:00.484Z,30.27
2018-12-27T05:10:48.838Z,31.13
2018-12-27T05:13:36.778Z,27.90
2018-12-27T05:19:31.942Z,26.70
2018-12-27T05:22:00.852Z,26.03
2018-12-27T05:24:48.932Z,24.00
2018-12-27T05:27:37.030Z,24.80
2018-12-27T05:30:45.667Z,24.40
2018-12-27T05:33:33.750Z,25.00
2018-12-27T05:36:21.835Z,25.10
2018-12-27T05:39:10.256Z,25.33
2018-12-27T05:41:58.359Z,26.33
2018-12-27T05:44:46.286Z,27.07
2018-12-27T05:47:34.389Z,27.03
2018-12-27T05:53:29.893Z,30.03
2018-12-27T05:56:17.836Z,28.60
2018-12-27T05:59:05.913Z,28.10
2018-12-27T06:04:47.860Z,32.27
2018-12-27T06:07:35.906Z,50.63
2018-12-27T06:10:44.670Z,44.10
2018-12-27T06:13:32.775Z,52.40
2018-12-27T06:16:01.827Z,54.73
2018-12-27T06:18:49.906Z,53.23
2018-12-27T06:21:37.969Z,63.30
2018-12-27T06:24:26.289Z,45.60
2018-12-27T06:27:14.489Z,58.23
2018-12-27T06:30:02.651Z,57.10
2018-12-27T06:32:50.715Z,45.63
2018-12-27T06:35:38.649Z,52.77
2018-12-27T06:38:27.013Z,58.23
2018-12-27T06:41:15.094Z,56.30
2018-12-27T06:44:03.175Z,55.73
2018-12-27T06:46:51.281Z,57.30
2018-12-27T06:49:39.268Z,59.13
2018-12-27T06:52:27.350Z,60.70
2018-12-27T06:55:15.400Z,70.40
2018-12-27T06:58:03.483Z,71.70
2018-12-27T07:00:51.387Z,64.43
2018-12-27T07:03:39.324Z,60.20
2018-12-27T07:06:27.384Z,61.80
2018-12-27T07:09:15.466Z,75.80
2018-12-27T07:12:03.409Z,90.60
2018-12-27T07:14:51.303Z,85.10
2018-12-27T07:17:39.381Z,96.67
2018-12-27T07:20:27.441Z,84.33
2018-12-27T07:26:22.615Z,82.03
2018-12-27T07:32:17.801Z,83.13
2018-12-27T07:35:05.840Z,101.23
2018-12-27T07:37:34.914Z,93.47
2018-12-27T07:40:04.422Z,107.20
2018-12-27T07:42:52.462Z,82.80
2018-12-27T07:48:33.841Z,95.93
2018-12-27T07:51:21.773Z,95.67
2018-12-27T07:54:09.814Z,106.83
2018-12-27T07:56:58.153Z,97.63
2018-12-27T07:59:46.240Z,123.53
2018-12-27T08:02:34.177Z,114.03
2018-12-27T08:05:04.250Z,95.90
2018-12-27T08:10:46.798Z,114.23
2018-12-27T08:13:15.735Z,110.33
2018-12-27T08:16:03.780Z,99.43
2018-12-27T08:18:51.885Z,92.77
2018-12-27T08:21:39.922Z,115.47
2018-12-27T08:24:28.006Z,104.03
2018-12-27T08:27:16.063Z,89.47
2018-12-27T08:30:04.144Z,87.83
2018-12-27T08:32:33.048Z,102.83
2018-12-27T08:35:21.132Z,111.90
2018-12-27T08:38:09.198Z,102.33
2018-12-27T08:40:57.307Z,99.73
2018-12-27T08:43:45.255Z,104.53
2018-12-27T08:46:33.339Z,92.10
2018-12-27T08:49:02.594Z,94.33
2018-12-27T08:51:50.677Z,102.77
2018-12-27T08:57:32.199Z,107.53
2018-12-27T09:00:20.100Z,82.73
2018-12-27T09:03:08.179Z,92.67
2018-12-27T09:05:56.211Z,82.37
2018-12-27T09:08:44.342Z,85.53
2018-12-27T09:11:32.240Z,86.77
2018-12-27T09:14:20.582Z,101.37
2018-12-27T09:17:08.670Z,109.40
2018-12-27T09:19:56.644Z,91.30
2018-12-27T09:22:44.714Z,91.17
2018-12-27T09:25:32.690Z,105.53
2018-12-27T09:28:20.768Z,103.53
2018-12-27T09:31:08.846Z,93.60
2018-12-27T09:33:56.942Z,114.60
2018-12-27T09:36:45.076Z,102.47
2018-12-27T09:39:33.466Z,105.17
2018-12-27T09:42:21.545Z,111.00
2018-12-27T09:45:09.675Z,112.20
2018-12-27T09:47:57.726Z,97.47
2018-12-27T09:50:45.668Z,134.67
2018-12-27T09:53:33.770Z,126.53
2018-12-27T09:56:21.864Z,119.83
2018-12-27T09:59:09.791Z,120.20
2018-12-27T10:01:57.876Z,104.20
2018-12-27T10:10:47.098Z,125.70
2018-12-27T10:13:35.182Z,95.83
2018-12-27T10:16:23.263Z,111.00
2018-12-27T10:19:11.328Z,91.90
2018-12-27T10:21:59.412Z,94.00
2018-12-27T10:24:47.519Z,96.67
2018-12-27T10:27:35.596Z,80.60
2018-12-27T10:30:44.092Z,74.33
2018-12-27T10:33:32.131Z,80.73
2018-12-27T10:36:20.077Z,80.33
2018-12-27T10:39:08.122Z,70.07
2018-12-27T10:41:56.205Z,83.10
2018-12-27T10:44:44.241Z,84.90
2018-12-27T10:47:32.327Z,73.70
2018-12-27T10:50:20.362Z,80.23
2018-12-27T10:56:09.922Z,69.97
2018-12-27T10:58:38.822Z,71.40
2018-12-27T11:01:26.802Z,67.50
2018-12-27T11:04:14.840Z,70.67
2018-12-27T11:07:02.946Z,58.47
2018-12-27T11:09:51.021Z,65.10
2018-12-27T11:12:39.097Z,84.23
2018-12-27T11:15:47.599Z,86.97
2018-12-27T11:21:42.832Z,73.70
2018-12-27T11:24:12.121Z,71.43
2018-12-27T11:27:00.204Z,59.57
2018-12-27T11:29:48.290Z,58.93
2018-12-27T11:32:36.378Z,65.20
2018-12-27T11:38:18.486Z,66.97
2018-12-27T11:41:06.607Z,55.80
2018-12-27T11:43:54.689Z,61.40
2018-12-27T11:46:42.743Z,62.40
2018-12-27T11:49:30.679Z,62.40
2018-12-27T11:52:18.766Z,63.70
2018-12-27T11:58:13.945Z,70.37
2018-12-27T12:01:01.985Z,84.47
2018-12-27T12:03:50.068Z,66.50
2018-12-27T12:06:38.193Z,68.17
2018-12-27T12:09:07.937Z,72.27
2018-12-27T12:11:55.880Z,64.07
2018-12-27T12:14:44.210Z,77.10
2018-12-27T12:17:32.182Z,72.33
2018-12-27T12:23:27.706Z,70.33
2018-12-27T12:25:56.722Z,65.50
2018-12-27T12:28:44.806Z,73.80
2018-12-27T12:31:32.850Z,62.70
2018-12-27T12:34:20.786Z,70.27
2018-12-27T12:37:29.293Z,68.23
2018-12-27T12:43:24.485Z,75.77
2018-12-27T12:46:12.579Z,67.00
2018-12-27T12:52:07.682Z,63.83
2018-12-27T12:54:55.759Z,60.03
2018-12-27T12:57:43.762Z,65.60
2018-12-27T13:00:32.198Z,47.47
2018-12-27T13:03:20.257Z,54.00
2018-12-27T13:06:08.323Z,59.83
2018-12-27T13:11:44.397Z,55.83
2018-12-27T13:14:32.473Z,48.63
2018-12-27T13:17:20.543Z,50.40
2018-12-27T13:20:08.630Z,57.00
2018-12-27T13:22:37.632Z,61.27
2018-12-27T13:25:46.132Z,47.40
2018-12-27T13:28:34.213Z,51.70
2018-12-27T13:31:22.281Z,55.77
2018-12-27T13:34:10.348Z,52.70
2018-12-27T13:36:58.370Z,67.37
2018-12-27T13:39:46.424Z,52.10
2018-12-27T13:42:34.498Z,59.30
2018-12-27T13:45:22.537Z,44.77
2018-12-27T13:48:10.654Z,58.53
2018-12-27T13:50:58.568Z,67.53
2018-12-27T13:53:46.527Z,68.60
2018-12-27T13:56:34.581Z,71.60
2018-12-27T13:59:22.666Z,64.77
2018-12-27T14:02:11.011Z,63.90
2018-12-27T14:04:59.087Z,70.70
2018-12-27T14:07:47.037Z,56.83
2018-12-27T14:13:42.287Z,58.60
2018-12-27T14:16:30.180Z,74.37
2018-12-27T14:22:11.625Z,51.47
2018-12-27T14:24:59.702Z,54.63
2018-12-27T14:30:41.191Z,49.67
2018-12-27T14:33:29.127Z,60.23
2018-12-27T14:36:17.214Z,39.60
2018-12-27T14:38:46.483Z,44.57
2018-12-27T14:44:29.542Z,41.63
2018-12-27T14:47:17.554Z,39.83
2018-12-27T14:50:05.598Z,48.20
2018-12-27T14:52:53.541Z,44.30
2018-12-27T14:55:41.906Z,58.03
2018-12-27T14:58:29.977Z,79.90
2018-12-27T15:01:18.068Z,67.57
2018-12-27T15:04:06.164Z,78.90
2018-12-27T15:06:54.256Z,61.23
2018-12-27T15:09:42.147Z,67.37
2018-12-27T15:12:30.221Z,76.10
2018-12-27T15:15:18.326Z,73.40
2018-12-27T15:18:06.437Z,78.20
2018-12-27T15:20:54.758Z,71.30
2018-12-27T15:23:42.805Z,64.23
2018-12-27T15:26:30.882Z,54.93
2018-12-27T15:29:18.975Z,53.43
2018-12-27T15:32:07.306Z,56.70
2018-12-27T15:34:55.377Z,59.73
2018-12-27T15:37:43.440Z,59.80
2018-12-27T15:40:31.522Z,49.20
2018-12-27T15:43:19.600Z,75.23
2018-12-27T15:45:48.663Z,56.93
2018-12-27T15:48:36.759Z,62.47
2018-12-27T15:54:31.934Z,59.80
2018-12-27T15:57:19.965Z,64.60
2018-12-27T16:00:07.906Z,64.13
2018-12-27T16:02:55.810Z,59.67
2018-12-27T16:05:44.174Z,52.73
2018-12-27T16:11:39.663Z,64.10
2018-12-27T16:17:34.855Z,62.93
2018-12-27T16:20:22.894Z,63.67
2018-12-27T16:26:09.529Z,79.83
2018-12-27T16:28:38.407Z,67.30
2018-12-27T16:31:26.485Z,61.40
2018-12-27T16:34:14.563Z,67.60
2018-12-27T16:37:09.036Z,70.10
2018-12-27T16:39:52.738Z,56.80
2018-12-27T16:42:40.719Z,66.63
2018-12-27T16:45:09.791Z,55.70
2018-12-27T16:47:57.708Z,66.27
2018-12-27T16:50:45.814Z,86.80
2018-12-27T16:53:33.852Z,68.30
2018-12-27T16:56:21.830Z,55.67
2018-12-27T16:59:10.033Z,55.20
2018-12-27T17:01:57.989Z,60.13
2018-12-27T17:04:46.081Z,56.10
2018-12-27T17:07:34.164Z,55.63
2018-12-27T17:10:22.206Z,62.27
2018-12-27T17:12:51.184Z,49.83
2018-12-27T17:15:39.601Z,58.43
2018-12-27T17:18:27.673Z,59.07
2018-12-27T17:24:09.616Z,49.47
2018-12-27T17:26:57.743Z,43.47
2018-12-27T17:29:45.818Z,43.73
2018-12-27T17:32:33.902Z,45.27
2018-12-27T17:35:21.982Z,53.20
2018-12-27T17:38:09.917Z,54.50
2018-12-27T17:40:58.047Z,51.83
2018-12-27T17:43:46.018Z,58.20
2018-12-27T17:49:41.154Z,49.27
2018-12-27T17:52:30.413Z,48.83
2018-12-27T17:55:18.857Z,47.87
2018-12-27T17:58:06.908Z,46.73
2018-12-27T18:00:54.949Z,51.57
2018-12-27T18:03:43.027Z,48.00
2018-12-27T18:06:12.006Z,41.67
2018-12-27T18:12:07.041Z,47.00
2018-12-27T18:14:55.122Z,45.83
2018-12-27T18:17:43.433Z,65.30
2018-12-27T18:20:31.599Z,49.40
2018-12-27T18:23:19.637Z,58.23
2018-12-27T18:26:07.727Z,55.50
2018-12-27T18:28:55.761Z,57.47
2018-12-27T18:31:43.720Z,57.40
2018-12-27T18:37:38.877Z,54.10
2018-12-27T18:40:26.903Z,50.87
2018-12-27T18:43:14.931Z,55.00
2018-12-27T18:46:02.895Z,43.50
2018-12-27T18:48:50.976Z,52.50
2018-12-27T18:51:38.867Z,42.43
2018-12-27T18:54:26.907Z,42.93
2018-12-27T18:57:14.994Z,46.57
2018-12-27T19:00:02.907Z,42.50
2018-12-27T19:02:50.984Z,44.53
2018-12-27T19:05:38.893Z,51.60
2018-12-27T19:08:26.903Z,38.37
2018-12-27T19:11:34.096Z,38.93
2018-12-27T19:14:22.063Z,47.13
2018-12-27T19:17:10.305Z,57.43
2018-12-27T19:19:58.236Z,51.20
2018-12-27T19:23:17.917Z,53.77
2018-12-27T19:26:05.938Z,58.43
2018-12-27T19:28:53.979Z,39.87
2018-12-27T19:31:43.526Z,41.53
2018-12-27T19:34:31.868Z,45.47
2018-12-27T19:37:19.891Z,40.47
2018-12-27T19:40:07.917Z,42.40
2018-12-27T19:42:56.084Z,36.67
2018-12-27T19:45:44.005Z,42.47
2018-12-27T19:48:52.541Z,42.07
2018-12-27T19:51:40.579Z,40.50
2018-12-27T19:54:32.004Z,34.53
2018-12-27T19:57:18.456Z,35.30
2018-12-27T20:03:15.407Z,36.10
2018-12-27T20:06:03.422Z,33.40
2018-12-27T20:08:51.446Z,32.80
2018-12-27T20:14:46.613Z,33.33
2018-12-27T20:17:34.709Z,31.73
2018-12-27T20:20:22.798Z,32.20
2018-12-27T20:23:22.767Z,32.03
2018-12-27T20:26:00.637Z,31.70
2018-12-27T20:28:48.671Z,33.07
2018-12-27T20:31:36.769Z,31.23
2018-12-27T20:34:24.855Z,31.40
2018-12-27T20:37:03.893Z,30.87
2018-12-27T20:39:52.013Z,29.60
2018-12-27T20:42:39.959Z,29.33
2018-12-27T20:45:27.997Z,27.30
2018-12-27T20:48:36.495Z,29.67
2018-12-27T20:51:24.469Z,28.47
2018-12-27T20:54:12.553Z,28.47
2018-12-27T20:57:00.603Z,25.20
2018-12-27T20:59:48.672Z,26.27
2018-12-27T21:02:36.572Z,26.00
2018-12-27T21:05:05.733Z,25.20
2018-12-27T21:08:01.091Z,26.70
2018-12-27T21:10:49.178Z,25.57
2018-12-27T21:13:37.219Z,26.07
2018-12-27T21:16:25.306Z,25.90
2018-12-27T21:19:13.284Z,24.73
2018-12-27T21:22:01.321Z,26.00
2018-12-27T21:24:49.406Z,24.00
2018-12-27T21:27:37.442Z,25.73
2018-12-27T21:33:21.026Z,23.77
2018-12-27T21:36:09.104Z,24.13
2018-12-27T21:38:57.155Z,25.97
2018-12-27T21:41:45.239Z,25.77
2018-12-27T21:44:14.103Z,24.83
2018-12-27T21:47:02.064Z,27.03
2018-12-27T21:52:57.231Z,25.03
2018-12-27T21:55:45.285Z,24.70
2018-12-27T21:58:33.375Z,26.17
2018-12-27T22:04:15.335Z,23.83
2018-12-27T22:10:10.849Z,25.37
2018-12-27T22:12:58.934Z,25.70
2018-12-27T22:15:46.975Z,25.30
2018-12-27T22:18:35.075Z,25.97
2018-12-27T22:21:23.081Z,25.40
2018-12-27T22:24:11.355Z,25.37
2018-12-27T22:26:59.429Z,26.00
2018-12-27T22:29:47.473Z,25.60
2018-12-27T22:32:35.554Z,25.27
2018-12-27T22:35:04.604Z,25.90
2018-12-27T22:37:52.693Z,25.60
2018-12-27T22:40:40.725Z,25.00
2018-12-27T22:43:29.151Z,26.00
2018-12-27T22:46:17.055Z,26.53
2018-12-27T22:49:05.324Z,25.70
2018-12-27T22:51:53.367Z,25.60
2018-12-27T22:54:41.444Z,25.13
2018-12-27T22:57:29.515Z,24.73
2018-12-27T23:03:14.497Z,24.73
2018-12-27T23:06:02.584Z,27.73
2018-12-27T23:08:50.543Z,23.50
2018-12-27T23:11:38.625Z,25.60
2018-12-27T23:14:26.707Z,24.80
2018-12-27T23:17:15.074Z,23.23
2018-12-27T23:23:10.269Z,25.60
2018-12-27T23:25:58.307Z,26.73
2018-12-27T23:28:46.393Z,27.20
2018-12-27T23:31:34.467Z,24.93
2018-12-27T23:34:22.575Z,25.83
2018-12-27T23:37:11.043Z,25.53
2018-12-27T23:39:59.049Z,24.20
2018-12-27T23:42:47.126Z,26.83
2018-12-27T23:45:35.193Z,23.67
2018-12-27T23:48:23.288Z,26.17
2018-12-27T23:51:11.222Z,24.20
2018-12-27T23:53:40.085Z,24.77
2018-12-27T23:56:28.029Z,24.70
2018-12-27T23:59:16.065Z,24.53
